Time;durP1;ratioP1;P1;durP2;ratioP2;P2;SDS_P1;SDS_P2;PMS_P1;PMS_P2;Temp;Humidity;BMP_temperature;BMP_pressure;BME280_temperature;BME280_humidity;BME280_pressure;Samples;Min_cycle;Max_cycle;Signal;HPM_P1;HPM_P2
2022/04/05 00:01:23;;;;;;;0.75;0.43;;;12.90;99.90;;;;;;5014144;28;20075;-58
2022/04/05 00:03:49;;;;;;;1.45;0.85;;;12.80;99.90;;;;;;5018602;28;20064;-59
2022/04/05 00:06:16;;;;;;;1.02;0.70;;;12.80;99.90;;;;;;5020106;28;20053;-59
2022/04/05 00:08:43;;;;;;;0.75;0.60;;;12.80;99.90;;;;;;5028283;28;20076;-59
2022/04/05 00:11:10;;;;;;;0.60;0.60;;;12.70;99.90;;;;;;5024141;28;20081;-58
2022/04/05 00:13:38;;;;;;;1.25;0.55;;;12.70;99.90;;;;;;5039724;28;20562;-59
2022/04/05 00:16:05;;;;;;;0.75;0.70;;;12.70;99.90;;;;;;5023475;28;20103;-59
2022/04/05 00:18:32;;;;;;;1.02;0.70;;;12.60;99.90;;;;;;5019549;28;20081;-58
2022/04/05 00:20:58;;;;;;;1.60;0.80;;;12.60;99.90;;;;;;5021578;28;20156;-59
2022/04/05 00:23:25;;;;;;;0.65;0.60;;;12.60;99.90;;;;;;5023619;28;20600;-59
2022/04/05 00:25:52;;;;;;;0.68;0.50;;;12.60;99.90;;;;;;5019519;28;20081;-59
2022/04/05 00:28:19;;;;;;;0.60;0.60;;;12.60;99.90;;;;;;5029284;28;20045;-59
2022/04/05 00:30:46;;;;;;;0.82;0.57;;;12.60;99.90;;;;;;5024866;28;20161;-59
2022/04/05 00:33:13;;;;;;;0.50;0.40;;;12.60;99.90;;;;;;5024490;28;20125;-59
2022/04/05 00:35:40;;;;;;;0.60;0.47;;;12.60;99.90;;;;;;5021452;28;20627;-59
2022/04/05 00:38:08;;;;;;;1.67;0.45;;;12.60;99.90;;;;;;5026287;28;20534;-58
2022/04/05 00:40:36;;;;;;;1.15;0.60;;;12.50;99.90;;;;;;5026631;28;20434;-58
2022/04/05 00:43:06;;;;;;;0.82;0.60;;;12.40;99.90;;;;;;5025591;28;20136;-59
2022/04/05 00:45:33;;;;;;;1.02;0.57;;;12.30;99.90;;;;;;5026352;28;20427;-59
2022/04/05 00:48:00;;;;;;;0.98;0.57;;;12.30;99.90;;;;;;5024705;28;20052;-59
2022/04/05 00:50:27;;;;;;;0.60;0.45;;;12.20;99.90;;;;;;5020832;28;20140;-59
2022/04/05 00:52:54;;;;;;;0.82;0.60;;;12.10;99.90;;;;;;5031317;28;20109;-59
2022/04/05 00:55:22;;;;;;;0.55;0.50;;;12.00;99.90;;;;;;5023107;28;20449;-58
2022/04/05 00:57:53;;;;;;;0.63;0.50;;;12.10;99.90;;;;;;5033109;28;20045;-59
2022/04/05 01:00:20;;;;;;;0.60;0.50;;;12.00;99.90;;;;;;5020169;28;20045;-58
2022/04/05 01:02:48;;;;;;;0.40;0.38;;;12.00;99.90;;;;;;5021515;28;20096;-59
2022/04/05 01:05:18;;;;;;;0.75;0.55;;;12.00;99.90;;;;;;5023382;28;20104;-59
2022/04/05 01:07:46;;;;;;;0.70;0.55;;;12.00;99.90;;;;;;5026359;28;20042;-59
2022/04/05 01:10:13;;;;;;;0.60;0.50;;;12.00;99.90;;;;;;5042446;28;20081;-59
2022/04/05 01:12:39;;;;;;;0.50;0.45;;;12.00;99.90;;;;;;5026055;28;20139;-59
2022/04/05 01:15:07;;;;;;;0.43;0.43;;;12.00;99.90;;;;;;5031429;28;20222;-59
2022/04/05 01:17:34;;;;;;;0.50;0.38;;;11.90;99.90;;;;;;5035428;28;20649;-58
2022/04/05 01:20:01;;;;;;;0.70;0.40;;;11.90;99.90;;;;;;5025294;28;20056;-59
2022/04/05 01:22:28;;;;;;;2.53;0.60;;;11.90;99.90;;;;;;5025723;28;20203;-59
2022/04/05 01:24:54;;;;;;;0.68;0.40;;;11.90;99.90;;;;;;5022765;28;20422;-59
2022/04/05 01:27:27;;;;;;;0.63;0.47;;;11.90;99.90;;;;;;5025109;28;20136;-59
2022/04/05 01:29:55;;;;;;;0.63;0.50;;;11.90;99.90;;;;;;5025088;28;20144;-59
2022/04/05 01:32:22;;;;;;;1.13;0.70;;;11.80;99.90;;;;;;5020578;28;20083;-59
2022/04/05 01:34:48;;;;;;;2.13;0.85;;;11.70;99.90;;;;;;5023193;28;20300;-59
2022/04/05 01:37:15;;;;;;;0.85;0.50;;;11.60;99.90;;;;;;5023459;28;20077;-59
2022/04/05 01:39:42;;;;;;;0.52;0.50;;;11.50;99.90;;;;;;5022435;28;20156;-58
2022/04/05 01:42:13;;;;;;;1.02;0.60;;;11.50;99.90;;;;;;5022855;28;20091;-59
2022/04/05 01:44:40;;;;;;;1.70;1.10;;;11.40;99.90;;;;;;5022018;28;20118;-59
2022/04/05 01:47:09;;;;;;;1.02;0.60;;;11.30;99.90;;;;;;5021843;28;20092;-58
2022/04/05 01:49:36;;;;;;;1.33;0.80;;;11.30;99.90;;;;;;5020682;28;20088;-58
2022/04/05 01:52:04;;;;;;;1.58;0.77;;;11.20;99.90;;;;;;5023064;28;20214;-60
2022/04/05 01:54:30;;;;;;;1.02;0.70;;;11.20;99.90;;;;;;5027215;28;20134;-59
2022/04/05 01:56:57;;;;;;;1.17;0.80;;;11.10;99.90;;;;;;5023568;28;20092;-59
2022/04/05 01:59:28;;;;;;;0.80;0.70;;;11.10;99.90;;;;;;5024261;28;20049;-59
2022/04/05 02:01:55;;;;;;;1.08;0.85;;;11.10;99.90;;;;;;5019944;28;20103;-59
2022/04/05 02:04:22;;;;;;;1.30;0.75;;;11.10;99.90;;;;;;5024065;28;20041;-59
2022/04/05 02:06:49;;;;;;;1.38;0.90;;;11.10;99.90;;;;;;5023589;28;20085;-59
2022/04/05 02:09:16;;;;;;;1.25;0.93;;;11.10;99.90;;;;;;5024360;28;20443;-59
2022/04/05 02:11:44;;;;;;;1.25;0.80;;;11.10;99.90;;;;;;5022044;28;20680;-59
2022/04/05 02:14:11;;;;;;;1.60;0.93;;;11.10;99.90;;;;;;5023250;28;20142;-59
2022/04/05 02:16:38;;;;;;;1.23;0.95;;;11.10;99.90;;;;;;5025984;28;20055;-59
2022/04/05 02:19:05;;;;;;;0.98;0.90;;;11.10;99.90;;;;;;5038647;28;20037;-59
2022/04/05 02:21:32;;;;;;;1.92;1.08;;;11.10;99.90;;;;;;5022888;28;20177;-59
2022/04/05 02:23:59;;;;;;;1.60;0.90;;;11.10;99.90;;;;;;5027275;28;20088;-59
2022/04/05 02:26:26;;;;;;;1.73;0.82;;;11.10;99.90;;;;;;5026792;28;20050;-58
2022/04/05 02:28:53;;;;;;;1.25;0.98;;;11.10;99.90;;;;;;5024957;28;20124;-59
2022/04/05 02:31:19;;;;;;;2.33;1.10;;;11.10;99.90;;;;;;5019921;28;20084;-59
2022/04/05 02:33:46;;;;;;;1.00;0.90;;;11.10;99.90;;;;;;5023698;28;20045;-59
2022/04/05 02:36:13;;;;;;;1.40;0.70;;;11.20;99.90;;;;;;5021088;28;20123;-57
2022/04/05 02:38:40;;;;;;;1.40;1.17;;;11.20;99.90;;;;;;5025351;28;20140;-59
2022/04/05 02:41:06;;;;;;;0.82;0.73;;;11.20;99.90;;;;;;5021398;28;20136;-59
2022/04/05 02:43:34;;;;;;;1.35;0.75;;;11.20;99.90;;;;;;5019769;28;20164;-59
2022/04/05 02:46:01;;;;;;;1.48;0.93;;;11.20;99.90;;;;;;5024140;28;20785;-59
2022/04/05 02:48:27;;;;;;;1.35;0.82;;;11.20;99.90;;;;;;5024168;28;20053;-58
2022/04/05 02:50:54;;;;;;;1.48;0.90;;;11.20;99.90;;;;;;5017701;28;20149;-59
2022/04/05 02:53:21;;;;;;;0.95;0.82;;;11.30;99.90;;;;;;5020141;28;20183;-59
2022/04/05 02:55:48;;;;;;;1.20;0.80;;;11.30;99.90;;;;;;5024060;28;20147;-59
2022/04/05 02:58:15;;;;;;;1.35;0.95;;;11.30;99.90;;;;;;5032460;28;20481;-59
2022/04/05 03:00:41;;;;;;;2.00;1.30;;;11.30;99.90;;;;;;5022814;28;20091;-59
2022/04/05 03:03:08;;;;;;;1.50;1.02;;;11.30;99.90;;;;;;5023150;28;20136;-59
2022/04/05 03:05:35;;;;;;;1.58;0.88;;;11.30;99.90;;;;;;5021999;28;20046;-59
2022/04/05 03:08:03;;;;;;;1.55;1.00;;;11.30;99.90;;;;;;5022015;28;20150;-59
2022/04/05 03:10:32;;;;;;;1.90;0.95;;;11.30;99.90;;;;;;5019333;28;20073;-59
2022/04/05 03:13:00;;;;;;;1.33;0.95;;;11.30;99.90;;;;;;5022962;28;20045;-59
2022/04/05 03:15:27;;;;;;;1.27;0.90;;;11.30;99.90;;;;;;5021093;28;20077;-59
2022/04/05 03:17:55;;;;;;;2.08;1.10;;;11.30;99.90;;;;;;5022591;28;20045;-59
2022/04/05 03:20:22;;;;;;;1.13;0.85;;;11.30;99.90;;;;;;5024187;28;20041;-59
2022/04/05 03:22:49;;;;;;;1.77;1.13;;;11.30;99.90;;;;;;5023146;28;20081;-59
2022/04/05 03:25:16;;;;;;;1.10;0.80;;;11.30;99.90;;;;;;5016991;28;20323;-58
2022/04/05 03:27:43;;;;;;;1.65;1.35;;;11.30;99.90;;;;;;5020600;28;20132;-58
2022/04/05 03:30:10;;;;;;;1.30;1.00;;;11.30;99.90;;;;;;5019643;28;20459;-59
2022/04/05 03:32:37;;;;;;;2.83;1.30;;;11.30;99.90;;;;;;5020982;28;20088;-58
2022/04/05 03:35:05;;;;;;;1.30;1.08;;;11.30;99.90;;;;;;5029258;28;20128;-59
2022/04/05 03:37:32;;;;;;;1.38;1.27;;;11.30;99.90;;;;;;5022333;28;20133;-59
2022/04/05 03:39:59;;;;;;;1.70;1.33;;;11.30;99.90;;;;;;5028383;28;20136;-59
2022/04/05 03:42:26;;;;;;;2.17;1.05;;;11.30;99.90;;;;;;5020169;28;20496;-59
2022/04/05 03:44:53;;;;;;;1.27;1.17;;;11.30;99.90;;;;;;5020922;28;20077;-58
2022/04/05 03:47:20;;;;;;;1.63;1.15;;;11.30;99.90;;;;;;5020838;28;20077;-59
2022/04/05 03:49:46;;;;;;;2.33;1.23;;;11.30;99.90;;;;;;5030519;28;20138;-58
2022/04/05 03:52:13;;;;;;;1.55;1.25;;;11.30;99.90;;;;;;5025389;28;20053;-59
2022/04/05 03:54:40;;;;;;;1.35;1.10;;;11.30;99.90;;;;;;5026128;28;20157;-61
2022/04/05 03:57:06;;;;;;;1.88;1.20;;;11.30;99.90;;;;;;5023283;28;20152;-62
2022/04/05 03:59:33;;;;;;;1.77;1.10;;;11.30;99.90;;;;;;5028619;28;20144;-59
2022/04/05 04:02:00;;;;;;;1.75;1.10;;;11.30;99.90;;;;;;5021348;28;20125;-59
2022/04/05 04:04:27;;;;;;;1.20;1.00;;;11.30;99.90;;;;;;5032550;28;20489;-59
2022/04/05 04:06:54;;;;;;;1.75;0.90;;;11.30;99.90;;;;;;5022688;28;20128;-59
2022/04/05 04:09:20;;;;;;;2.38;1.52;;;11.30;99.90;;;;;;5023374;28;20120;-59
2022/04/05 04:11:48;;;;;;;1.33;1.00;;;11.30;99.90;;;;;;5030649;28;20105;-59
2022/04/05 04:14:15;;;;;;;1.77;1.20;;;11.30;99.90;;;;;;5023257;28;20045;-59
2022/04/05 04:16:42;;;;;;;1.85;1.08;;;11.40;99.90;;;;;;5022121;28;20111;-59
2022/04/05 04:19:09;;;;;;;1.83;1.10;;;11.30;99.90;;;;;;5022619;28;20568;-58
2022/04/05 04:21:36;;;;;;;1.90;0.95;;;11.30;99.90;;;;;;5021619;28;20085;-59
2022/04/05 04:24:03;;;;;;;2.05;0.93;;;11.30;99.90;;;;;;5023188;28;20072;-59
2022/04/05 04:26:29;;;;;;;1.77;1.25;;;11.30;99.90;;;;;;5019032;28;20516;-59
2022/04/05 04:29:00;;;;;;;1.67;1.20;;;11.30;99.90;;;;;;5024121;28;20069;-59
2022/04/05 04:31:27;;;;;;;3.13;1.30;;;11.30;99.90;;;;;;5022528;28;20580;-59
2022/04/05 04:33:54;;;;;;;1.63;1.50;;;11.30;99.90;;;;;;5013594;28;20050;-61
2022/04/05 04:36:21;;;;;;;1.50;1.23;;;11.30;99.90;;;;;;5015569;28;20126;-59
2022/04/05 04:38:48;;;;;;;1.83;1.50;;;11.30;99.90;;;;;;5020478;28;20141;-58
2022/04/05 04:41:15;;;;;;;1.58;1.35;;;11.30;99.90;;;;;;5029740;28;20104;-59
2022/04/05 04:43:42;;;;;;;1.35;1.20;;;11.30;99.90;;;;;;5021562;28;20077;-59
2022/04/05 04:46:09;;;;;;;2.83;1.85;;;11.20;99.90;;;;;;5019726;28;20073;-58
2022/04/05 04:48:37;;;;;;;1.63;1.40;;;11.30;99.90;;;;;;5016056;28;20049;-59
2022/04/05 04:51:03;;;;;;;2.03;1.63;;;11.30;99.90;;;;;;5017252;28;20132;-59
2022/04/05 04:53:30;;;;;;;2.45;1.83;;;11.20;99.90;;;;;;5018335;28;20197;-59
2022/04/05 04:55:57;;;;;;;2.13;1.75;;;11.30;99.90;;;;;;5024994;28;20056;-59
2022/04/05 04:58:34;;;;;;;1.80;1.40;;;11.30;99.90;;;;;;5023345;28;20378;-59
2022/04/05 05:01:01;;;;;;;2.67;1.60;;;11.20;99.90;;;;;;5025845;28;20128;-59
2022/04/05 05:03:28;;;;;;;3.15;1.50;;;11.20;99.90;;;;;;5022087;28;20045;-59
2022/04/05 05:05:55;;;;;;;3.15;1.80;;;11.30;99.90;;;;;;5020035;28;20052;-59
2022/04/05 05:08:22;;;;;;;2.28;1.70;;;11.20;99.90;;;;;;5023476;28;20194;-59
2022/04/05 05:10:49;;;;;;;1.92;1.63;;;11.20;99.90;;;;;;5019273;28;20045;-59
2022/04/05 05:13:17;;;;;;;2.00;1.58;;;11.20;99.90;;;;;;5031302;28;20132;-59
2022/04/05 05:15:45;;;;;;;1.92;1.70;;;11.20;99.90;;;;;;5029271;28;20055;-59
2022/04/05 05:18:12;;;;;;;3.00;1.42;;;11.20;99.90;;;;;;5025198;28;20489;-59
2022/04/05 05:20:39;;;;;;;2.72;1.50;;;11.20;99.90;;;;;;5025008;28;20049;-59
2022/04/05 05:23:06;;;;;;;2.10;1.58;;;11.20;99.90;;;;;;5028194;28;20119;-58
2022/04/05 05:25:32;;;;;;;2.05;1.55;;;11.30;99.90;;;;;;5031708;28;20045;-59
2022/04/05 05:28:00;;;;;;;2.83;2.03;;;11.20;99.90;;;;;;5028370;28;20062;-59
2022/04/05 05:30:27;;;;;;;3.00;1.75;;;11.30;99.90;;;;;;5021991;28;20104;-59
2022/04/05 05:32:53;;;;;;;3.80;1.88;;;11.30;99.90;;;;;;5027138;28;20589;-58
2022/04/05 05:35:21;;;;;;;1.83;1.42;;;11.30;99.90;;;;;;5030959;28;20124;-57
2022/04/05 05:37:48;;;;;;;2.45;2.05;;;11.30;99.90;;;;;;5025079;28;20120;-58
2022/04/05 05:40:15;;;;;;;3.13;1.70;;;11.30;99.90;;;;;;5025185;28;20395;-59
2022/04/05 05:42:47;;;;;;;2.40;2.00;;;11.30;99.90;;;;;;5019882;28;20148;-58
2022/04/05 05:45:14;;;;;;;2.85;1.85;;;11.30;99.90;;;;;;5020272;28;20565;-58
2022/04/05 05:47:41;;;;;;;1.95;1.75;;;11.30;99.90;;;;;;5027167;28;20057;-56
2022/04/05 05:50:10;;;;;;;2.20;1.80;;;11.30;99.90;;;;;;5017285;28;20084;-59
2022/04/05 05:52:36;;;;;;;2.88;2.20;;;11.30;99.90;;;;;;5012287;28;20123;-58
2022/04/05 05:55:04;;;;;;;3.63;2.17;;;11.30;99.90;;;;;;5009892;28;20136;-57
2022/04/05 05:57:31;;;;;;;3.00;2.40;;;11.30;99.90;;;;;;5018848;28;20093;-59
2022/04/05 05:59:58;;;;;;;2.80;2.30;;;11.30;99.90;;;;;;5017153;28;20108;-59
2022/04/05 06:02:24;;;;;;;3.70;2.58;;;11.30;99.90;;;;;;5003041;28;20473;-60
2022/04/05 06:04:51;;;;;;;2.70;2.40;;;11.20;99.90;;;;;;5009888;28;20366;-60
2022/04/05 06:07:18;;;;;;;2.50;2.10;;;11.30;99.90;;;;;;5013805;28;20132;-59
2022/04/05 06:09:45;;;;;;;4.13;2.08;;;11.30;99.90;;;;;;5006468;28;20415;-59
2022/04/05 06:12:12;;;;;;;3.00;2.03;;;11.30;99.90;;;;;;4998914;28;20069;-59
2022/04/05 06:14:38;;;;;;;2.40;2.20;;;11.30;99.90;;;;;;5003325;28;20148;-58
2022/04/05 06:17:05;;;;;;;4.85;2.47;;;11.30;99.90;;;;;;5018003;28;20072;-59
2022/04/05 06:19:32;;;;;;;4.13;2.70;;;11.30;99.90;;;;;;5018103;28;20726;-59
2022/04/05 06:21:59;;;;;;;2.45;2.13;;;11.30;99.90;;;;;;5000160;28;20148;-59
2022/04/05 06:24:26;;;;;;;2.80;2.15;;;11.30;99.90;;;;;;5013929;28;20132;-60
2022/04/05 06:26:52;;;;;;;3.13;2.13;;;11.30;99.90;;;;;;4999288;28;20127;-59
2022/04/05 06:29:19;;;;;;;4.28;2.67;;;11.30;99.90;;;;;;5005601;28;20150;-58
2022/04/05 06:31:46;;;;;;;2.50;2.25;;;11.30;99.90;;;;;;5012753;28;20450;-59
2022/04/05 06:34:13;;;;;;;2.42;2.20;;;11.30;99.90;;;;;;5005269;28;20050;-59
2022/04/05 06:36:40;;;;;;;3.00;2.70;;;11.30;99.90;;;;;;4999946;28;20129;-59
2022/04/05 06:39:07;;;;;;;3.35;2.60;;;11.40;99.90;;;;;;5013193;28;20085;-59
2022/04/05 06:41:34;;;;;;;3.65;2.30;;;11.40;99.90;;;;;;5013715;28;20140;-59
2022/04/05 06:44:01;;;;;;;3.22;2.50;;;11.40;99.90;;;;;;5017200;28;20433;-59
2022/04/05 06:46:30;;;;;;;4.25;2.72;;;11.40;99.90;;;;;;5016615;28;20115;-59
2022/04/05 06:48:57;;;;;;;2.80;2.47;;;11.50;99.90;;;;;;5016036;28;20149;-59
2022/04/05 06:51:24;;;;;;;4.20;3.03;;;11.50;99.90;;;;;;5000334;28;20081;-58
2022/04/05 06:53:52;;;;;;;2.97;2.30;;;11.50;99.90;;;;;;5009675;28;20762;-58
2022/04/05 06:56:21;;;;;;;2.97;2.40;;;11.60;99.90;;;;;;5002504;28;20147;-58
2022/04/05 06:58:48;;;;;;;3.10;2.40;;;11.60;99.90;;;;;;5018558;28;20259;-58
2022/04/05 07:01:15;;;;;;;3.28;2.75;;;11.70;99.90;;;;;;5013375;28;20125;-59
2022/04/05 07:03:42;;;;;;;3.58;2.13;;;11.70;99.90;;;;;;5016818;28;20500;-58
2022/04/05 07:06:09;;;;;;;2.40;1.92;;;11.70;99.90;;;;;;5017684;28;20155;-59
2022/04/05 07:08:36;;;;;;;5.07;3.10;;;11.70;99.90;;;;;;5001400;28;20160;-59
2022/04/05 07:11:03;;;;;;;4.22;2.50;;;11.80;99.90;;;;;;5012934;28;20077;-59
2022/04/05 07:13:30;;;;;;;2.72;2.08;;;11.80;99.90;;;;;;5011914;28;20117;-59
2022/04/05 07:15:58;;;;;;;2.85;2.10;;;11.90;99.90;;;;;;5008996;28;20169;-59
2022/04/05 07:18:24;;;;;;;3.55;2.20;;;11.90;99.90;;;;;;5011448;28;20456;-59
2022/04/05 07:20:52;;;;;;;3.45;2.47;;;12.00;99.90;;;;;;5014960;28;20056;-59
2022/04/05 07:23:20;;;;;;;3.63;2.40;;;11.90;99.90;;;;;;5016215;28;20076;-58
2022/04/05 07:25:47;;;;;;;3.67;2.22;;;12.00;99.90;;;;;;5018844;28;20050;-60
2022/04/05 07:28:14;;;;;;;3.17;2.00;;;12.00;99.90;;;;;;5028352;28;20544;-60
2022/04/05 07:30:40;;;;;;;2.60;2.00;;;12.10;99.90;;;;;;5021646;28;20139;-59
2022/04/05 07:33:07;;;;;;;2.85;2.22;;;12.00;99.90;;;;;;5014209;28;20533;-59
2022/04/05 07:35:34;;;;;;;2.90;2.20;;;12.00;99.90;;;;;;5010323;28;20126;-60
2022/04/05 07:38:01;;;;;;;3.45;2.50;;;12.00;99.90;;;;;;4997223;28;20488;-59
2022/04/05 07:40:47;;;;;;;3.45;2.33;;;12.10;99.90;;;;;;5004853;28;20081;-58
2022/04/05 07:43:16;;;;;;;3.05;2.40;;;12.10;99.90;;;;;;5009589;28;20075;-59
2022/04/05 07:45:44;;;;;;;2.92;2.28;;;12.20;99.90;;;;;;5013528;28;20415;-59
2022/04/05 07:48:11;;;;;;;3.60;2.40;;;12.20;99.90;;;;;;5037227;28;20063;-59
2022/04/05 07:50:38;;;;;;;3.92;2.58;;;12.20;99.90;;;;;;5010576;28;20073;-59
2022/04/05 07:53:10;;;;;;;3.55;2.17;;;12.20;99.90;;;;;;5002793;28;20052;-59
2022/04/05 07:55:37;;;;;;;4.20;2.63;;;12.20;99.90;;;;;;5011207;28;20049;-59
2022/04/05 07:58:03;;;;;;;3.22;2.67;;;12.20;99.90;;;;;;5000942;28;20427;-60
2022/04/05 08:00:30;;;;;;;5.78;3.00;;;12.30;99.90;;;;;;5013729;28;20576;-60
2022/04/05 08:02:57;;;;;;;3.38;2.88;;;12.30;99.90;;;;;;5028373;28;20054;-60
2022/04/05 08:05:24;;;;;;;3.95;2.80;;;12.30;99.90;;;;;;4998366;28;20146;-59
2022/04/05 08:07:51;;;;;;;3.38;2.45;;;12.30;99.90;;;;;;4998520;28;20489;-60
2022/04/05 08:10:18;;;;;;;3.80;2.80;;;12.30;99.90;;;;;;5008596;28;20046;-59
2022/04/05 08:12:46;;;;;;;5.55;2.90;;;12.30;99.90;;;;;;5006638;28;20053;-59
2022/04/05 08:15:15;;;;;;;3.22;2.30;;;12.30;99.90;;;;;;5002139;28;20132;-59
2022/04/05 08:17:41;;;;;;;3.45;2.38;;;12.30;99.90;;;;;;5010056;28;20077;-59
2022/04/05 08:20:09;;;;;;;3.88;2.33;;;12.30;99.90;;;;;;5008641;28;20696;-59
2022/04/05 08:22:35;;;;;;;3.97;2.50;;;12.40;99.90;;;;;;5016100;28;20147;-59
2022/04/05 08:25:02;;;;;;;3.78;2.28;;;12.40;99.90;;;;;;5013477;28;20075;-60
2022/04/05 08:27:29;;;;;;;3.17;2.55;;;12.50;99.90;;;;;;5004330;28;20557;-60
2022/04/05 08:29:56;;;;;;;3.20;2.65;;;12.50;99.90;;;;;;5017999;28;20037;-61
2022/04/05 08:32:23;;;;;;;3.15;2.20;;;12.50;99.90;;;;;;5036485;28;20057;-60
2022/04/05 08:34:49;;;;;;;4.13;2.50;;;12.60;99.90;;;;;;5014664;28;20456;-60
2022/04/05 08:37:16;;;;;;;4.20;2.25;;;12.60;99.90;;;;;;5006999;28;20106;-60
2022/04/05 08:39:43;;;;;;;3.85;2.92;;;12.60;99.90;;;;;;5024311;28;20168;-60
2022/04/05 08:42:11;;;;;;;2.95;2.47;;;12.60;99.90;;;;;;5004319;28;20133;-59
2022/04/05 08:44:38;;;;;;;3.17;2.15;;;12.60;99.90;;;;;;5018569;28;20057;-59
2022/04/05 08:47:05;;;;;;;2.92;1.83;;;12.70;99.90;;;;;;5016141;28;20376;-59
2022/04/05 08:49:32;;;;;;;4.13;2.50;;;12.70;99.90;;;;;;5004477;28;20414;-59
2022/04/05 08:51:59;;;;;;;3.72;1.90;;;12.80;99.90;;;;;;5011096;28;20215;-60
2022/04/05 08:54:26;;;;;;;2.67;1.77;;;12.90;99.90;;;;;;5015318;28;20053;-60
2022/04/05 08:56:52;;;;;;;3.03;1.65;;;13.00;99.90;;;;;;5022858;28;20073;-59
2022/04/05 08:59:19;;;;;;;2.20;1.33;;;13.00;99.90;;;;;;5016960;28;20076;-59
2022/04/05 09:01:46;;;;;;;3.30;1.55;;;13.10;99.90;;;;;;5030229;28;20053;-59
2022/04/05 09:04:13;;;;;;;4.80;2.22;;;13.20;99.90;;;;;;5011106;28;20361;-59
2022/04/05 09:06:39;;;;;;;4.53;1.70;;;13.10;99.90;;;;;;5009635;28;20046;-59
2022/04/05 09:09:10;;;;;;;3.95;1.45;;;13.00;99.90;;;;;;5010343;28;20472;-60
2022/04/05 09:11:48;;;;;;;4.18;1.40;;;13.00;99.90;;;;;;5004428;28;20078;-59
2022/04/05 09:14:26;;;;;;;2.35;1.20;;;13.00;99.90;;;;;;5007967;28;20065;-60
2022/04/05 09:17:07;;;;;;;2.00;0.95;;;12.90;99.90;;;;;;5007796;28;20449;-60
2022/04/05 09:19:42;;;;;;;2.35;1.23;;;13.00;99.90;;;;;;5007376;28;20132;-59
2022/04/05 09:22:09;;;;;;;1.35;0.90;;;13.10;99.90;;;;;;5013459;28;20433;-59
2022/04/05 09:24:40;;;;;;;1.92;1.45;;;13.20;99.90;;;;;;5003550;28;20080;-59
2022/04/05 09:27:07;;;;;;;1.83;1.17;;;13.30;99.90;;;;;;5018485;28;20114;-60
2022/04/05 09:29:39;;;;;;;2.78;1.38;;;13.20;99.90;;;;;;5010868;28;20867;-59
2022/04/05 09:32:06;;;;;;;3.00;1.85;;;13.20;99.90;;;;;;5017890;28;20057;-60
2022/04/05 09:34:33;;;;;;;3.15;1.63;;;13.20;99.90;;;;;;5012288;28;20100;-60
2022/04/05 09:37:07;;;;;;;2.85;1.42;;;13.10;99.90;;;;;;5018247;28;20140;-60
2022/04/05 09:39:34;;;;;;;3.13;1.48;;;13.10;99.90;;;;;;5018434;28;20091;-60
2022/04/05 09:42:02;;;;;;;3.53;1.50;;;13.10;99.90;;;;;;4999411;28;20046;-60
2022/04/05 09:44:34;;;;;;;2.55;1.27;;;13.20;99.90;;;;;;5017470;28;20133;-59
2022/04/05 09:47:17;;;;;;;2.85;1.30;;;13.20;99.90;;;;;;5011928;28;20073;-60
2022/04/05 09:49:48;;;;;;;2.03;1.27;;;13.30;99.90;;;;;;5018718;28;20046;-59
2022/04/05 09:52:26;;;;;;;2.97;1.65;;;13.30;99.90;;;;;;5001235;28;20046;-59
2022/04/05 09:54:53;;;;;;;3.85;1.77;;;13.30;99.90;;;;;;5002921;28;20085;-59
2022/04/05 09:57:32;;;;;;;3.28;2.10;;;13.40;99.90;;;;;;5002173;28;20069;-58
2022/04/05 10:00:19;;;;;;;3.45;1.75;;;13.50;99.90;;;;;;5007924;28;20073;-59
2022/04/05 10:02:58;;;;;;;4.13;1.70;;;13.60;99.90;;;;;;5012993;28;20077;-58
2022/04/05 10:05:25;;;;;;;5.30;1.85;;;13.90;99.90;;;;;;5020457;28;20050;-59
2022/04/05 10:07:52;;;;;;;3.88;1.65;;;14.10;99.90;;;;;;5006079;28;20132;-58
2022/04/05 10:10:19;;;;;;;3.92;1.90;;;14.20;99.90;;;;;;5008436;28;20121;-58
2022/04/05 10:12:49;;;;;;;3.15;1.40;;;14.30;99.90;;;;;;5009516;28;20072;-59
2022/04/05 10:15:16;;;;;;;4.55;1.50;;;14.30;99.90;;;;;;5016206;28;20149;-59
2022/04/05 10:17:45;;;;;;;3.05;1.48;;;14.50;99.90;;;;;;5013899;28;20137;-58
2022/04/05 10:20:12;;;;;;;4.28;1.73;;;14.60;99.90;;;;;;5006354;28;20070;-59
2022/04/05 10:22:40;;;;;;;3.85;1.40;;;14.70;99.90;;;;;;5003814;28;20192;-59
2022/04/05 10:25:09;;;;;;;3.42;1.52;;;14.80;99.90;;;;;;5018404;28;20061;-59
2022/04/05 10:27:36;;;;;;;2.28;1.25;;;14.70;99.90;;;;;;5016797;28;20119;-59
2022/04/05 10:30:15;;;;;;;2.88;1.60;;;14.70;99.90;;;;;;5006500;28;20151;-59
2022/04/05 10:33:04;;;;;;;2.53;1.20;;;14.60;99.90;;;;;;5005696;28;20054;-57
2022/04/05 10:35:31;;;;;;;3.17;1.45;;;14.60;99.90;;;;;;5014036;28;20156;-58
2022/04/05 10:38:15;;;;;;;3.13;1.30;;;14.60;99.90;;;;;;5006175;28;20394;-59
2022/04/05 10:40:41;;;;;;;4.50;1.73;;;14.60;99.90;;;;;;5017019;28;20044;-59
2022/04/05 10:43:16;;;;;;;3.55;1.75;;;14.60;99.90;;;;;;5029703;28;20136;-58
2022/04/05 10:45:43;;;;;;;3.50;1.50;;;14.60;99.90;;;;;;5027442;28;20357;-57
2022/04/05 10:48:15;;;;;;;5.32;2.35;;;14.60;99.90;;;;;;5036784;28;20052;-59
2022/04/05 10:51:02;;;;;;;2.92;1.45;;;14.60;99.90;;;;;;5020966;28;20143;-59
2022/04/05 10:53:36;;;;;;;3.65;1.52;;;14.70;99.90;;;;;;5024289;28;20052;-58
2022/04/05 10:56:03;;;;;;;4.47;1.83;;;14.80;99.90;;;;;;5034872;28;20048;-58
2022/04/05 10:58:39;;;;;;;2.58;1.45;;;14.80;99.90;;;;;;5038097;28;20079;-59
2022/04/05 11:01:17;;;;;;;4.88;1.83;;;14.80;99.90;;;;;;5012129;28;20162;-59
2022/04/05 11:04:09;;;;;;;4.32;1.80;;;14.80;99.90;;;;;;5004332;28;20053;-59
2022/04/05 11:06:58;;;;;;;4.93;2.33;;;14.80;99.90;;;;;;5008680;28;20093;-58
2022/04/05 11:09:25;;;;;;;3.05;1.55;;;14.80;99.90;;;;;;4999113;28;20121;-59
2022/04/05 11:11:53;;;;;;;3.50;1.73;;;15.00;99.90;;;;;;5014971;28;20125;-58
2022/04/05 11:14:42;;;;;;;3.72;2.08;;;15.10;99.90;;;;;;5016054;28;20483;-58
2022/04/05 11:17:10;;;;;;;4.47;1.65;;;15.00;99.90;;;;;;5014719;28;20049;-58
2022/04/05 11:19:38;;;;;;;3.03;1.70;;;14.90;99.90;;;;;;5015216;28;20232;-61
2022/04/05 11:22:06;;;;;;;5.93;2.25;;;14.90;99.90;;;;;;5002228;28;20108;-59
2022/04/05 11:24:53;;;;;;;4.70;2.38;;;14.80;99.90;;;;;;5011572;28;20077;-58
2022/04/05 11:27:28;;;;;;;4.22;1.90;;;14.70;99.90;;;;;;5011226;28;20088;-59
2022/04/05 11:30:22;;;;;;;4.43;1.70;;;14.70;99.90;;;;;;5010314;28;20131;-59
2022/04/05 11:33:16;;;;;;;4.13;2.03;;;14.60;99.90;;;;;;5011729;28;20123;-60
2022/04/05 11:35:52;;;;;;;6.03;1.80;;;14.50;99.90;;;;;;5017818;28;20107;-59
2022/04/05 11:38:20;;;;;;;3.95;1.63;;;14.50;99.90;;;;;;5018360;28;20057;-60
2022/04/05 11:41:02;;;;;;;4.13;1.70;;;14.60;99.90;;;;;;5017999;28;20046;-59
2022/04/05 11:43:41;;;;;;;4.82;2.05;;;14.70;99.90;;;;;;5018719;28;20160;-59
2022/04/05 11:46:16;;;;;;;4.80;2.15;;;14.90;99.90;;;;;;5021186;28;20081;-59
2022/04/05 11:48:51;;;;;;;5.25;2.55;;;14.90;99.90;;;;;;5019125;28;20060;-60
2022/04/05 11:51:30;;;;;;;4.70;2.20;;;14.80;99.90;;;;;;5020459;28;20160;-59
2022/04/05 11:54:08;;;;;;;5.43;1.92;;;14.60;99.90;;;;;;5024177;28;20080;-59
2022/04/05 11:56:35;;;;;;;4.55;1.80;;;14.50;99.90;;;;;;5023733;28;20144;-58
2022/04/05 11:59:04;;;;;;;4.22;1.92;;;14.50;99.90;;;;;;5023653;28;20149;-59
2022/04/05 12:01:36;;;;;;;4.22;2.10;;;14.50;99.90;;;;;;5022328;28;20106;-59
2022/04/05 12:04:11;;;;;;;5.90;2.17;;;14.60;99.90;;;;;;5023180;28;20053;-59
2022/04/05 12:06:40;;;;;;;4.70;1.90;;;14.60;99.90;;;;;;5025285;28;20057;-58
2022/04/05 12:09:12;;;;;;;3.33;1.58;;;14.80;99.90;;;;;;5026844;28;20056;-59
2022/04/05 12:11:40;;;;;;;2.90;1.58;;;14.90;99.90;;;;;;5027885;28;20111;-59
2022/04/05 12:14:11;;;;;;;3.83;1.60;;;15.10;99.90;;;;;;5027109;28;20322;-59
2022/04/05 12:16:56;;;;;;;5.38;2.03;;;15.10;99.90;;;;;;5027139;28;20140;-59
2022/04/05 12:19:36;;;;;;;5.03;1.65;;;15.00;99.90;;;;;;5026470;28;20088;-58
2022/04/05 12:22:07;;;;;;;3.53;1.70;;;15.00;99.90;;;;;;5025890;28;20084;-59
2022/04/05 12:24:36;;;;;;;5.88;2.10;;;14.90;99.90;;;;;;5022485;28;20068;-59
2022/04/05 12:27:04;;;;;;;3.88;1.73;;;14.80;99.90;;;;;;5024234;28;20041;-59
2022/04/05 12:29:32;;;;;;;4.05;2.10;;;14.60;99.90;;;;;;5025012;28;20053;-59
2022/04/05 12:32:08;;;;;;;7.60;2.25;;;14.60;99.90;;;;;;5022890;28;20192;-59
2022/04/05 12:34:35;;;;;;;3.95;1.67;;;14.50;99.90;;;;;;5024192;28;20192;-59
2022/04/05 12:37:02;;;;;;;4.03;1.75;;;14.60;99.90;;;;;;5026237;28;20136;-59
2022/04/05 12:39:30;;;;;;;4.57;2.13;;;14.50;99.90;;;;;;5027329;28;20134;-58
2022/04/05 12:42:05;;;;;;;2.83;1.45;;;14.50;99.90;;;;;;5027771;28;20049;-59
2022/04/05 12:44:33;;;;;;;3.53;1.67;;;14.40;99.90;;;;;;5026531;28;20496;-59
2022/04/05 12:47:14;;;;;;;6.20;1.67;;;14.50;99.90;;;;;;5026992;28;20136;-59
2022/04/05 12:49:46;;;;;;;5.22;2.25;;;14.50;99.90;;;;;;5025333;28;20226;-57
2022/04/05 12:52:25;;;;;;;5.55;2.83;;;14.60;99.90;;;;;;5027208;28;20088;-59
2022/04/05 12:55:01;;;;;;;5.72;2.33;;;14.50;99.90;;;;;;5027294;28;20151;-59
2022/04/05 12:57:38;;;;;;;5.10;2.22;;;14.60;99.90;;;;;;5025679;28;20135;-59